Time;durP1;ratioP1;P1;durP2;ratioP2;P2;SDS_P1;SDS_P2;PMS_P1;PMS_P2;Temp;Humidity;BMP_temperature;BMP_pressure;BME280_temperature;BME280_humidity;BME280_pressure;Samples;Min_cycle;Max_cycle;Signal;HPM_P1;HPM_P2
2022/11/18 00:01:07;;;;;;;8.02;5.78;;;7.10;99.90;;;;;;5156974;27;20039;-67
2022/11/18 00:03:32;;;;;;;10.30;5.85;;;6.80;99.90;;;;;;5139070;27;20054;-67
2022/11/18 00:05:58;;;;;;;8.85;6.03;;;6.70;99.90;;;;;;5138127;27;20038;-67
2022/11/18 00:08:25;;;;;;;8.30;6.03;;;7.00;99.90;;;;;;5138550;27;20129;-67
2022/11/18 00:10:51;;;;;;;6.88;4.95;;;7.00;99.90;;;;;;5156810;27;20061;-66
2022/11/18 00:16:11;;;;;;;8.90;6.03;;;7.10;99.90;;;;;;5138597;27;20054;-67
2022/11/18 00:18:37;;;;;;;8.25;5.75;;;7.40;99.90;;;;;;5138214;27;20043;-66
2022/11/18 00:21:08;;;;;;;10.30;7.15;;;7.00;99.90;;;;;;5138453;27;20049;-66
2022/11/18 00:23:35;;;;;;;9.40;6.20;;;7.10;99.90;;;;;;5155954;27;20070;-66
2022/11/18 00:26:13;;;;;;;10.02;6.32;;;7.00;99.90;;;;;;5138007;27;20057;-66
2022/11/18 00:28:40;;;;;;;10.45;7.18;;;6.60;99.90;;;;;;5156477;27;20126;-67
2022/11/18 00:31:13;;;;;;;10.65;7.13;;;7.00;99.90;;;;;;5156372;27;20089;-67
2022/11/18 00:33:39;;;;;;;10.40;7.13;;;7.00;99.90;;;;;;5138050;27;20050;-66
2022/11/18 00:36:07;;;;;;;10.50;6.50;;;6.80;99.90;;;;;;5120303;27;20046;-67
2022/11/18 00:38:32;;;;;;;10.27;6.82;;;6.70;99.90;;;;;;5156148;27;20050;-67
2022/11/18 00:41:06;;;;;;;10.43;6.90;;;6.90;99.90;;;;;;5155991;27;20035;-67
2022/11/18 00:43:33;;;;;;;10.02;7.55;;;6.80;99.90;;;;;;5155987;27;20442;-66
2022/11/18 00:45:59;;;;;;;10.23;6.68;;;6.90;99.90;;;;;;5156054;27;20054;-67
2022/11/18 00:48:25;;;;;;;10.98;6.90;;;7.00;99.90;;;;;;5137720;27;20039;-66
2022/11/18 00:50:53;;;;;;;11.98;7.80;;;7.10;99.90;;;;;;5137568;27;20086;-67
2022/11/18 00:53:20;;;;;;;11.95;7.18;;;7.00;99.90;;;;;;5155318;27;20053;-67
2022/11/18 00:55:46;;;;;;;9.90;6.43;;;7.00;99.90;;;;;;5137451;27;20497;-67
2022/11/18 00:58:13;;;;;;;11.32;6.95;;;6.70;99.90;;;;;;5155935;27;20043;-67
2022/11/18 01:00:43;;;;;;;11.68;7.53;;;7.10;99.90;;;;;;5137235;27;20104;-67
2022/11/18 01:03:11;;;;;;;10.85;7.28;;;7.00;99.90;;;;;;5155801;27;20069;-67
2022/11/18 01:05:37;;;;;;;11.10;7.05;;;7.60;99.90;;;;;;5156330;27;20043;-66
2022/11/18 01:08:04;;;;;;;9.27;6.70;;;7.40;99.90;;;;;;5137404;27;20383;-67
2022/11/18 01:10:30;;;;;;;11.35;7.22;;;6.60;99.90;;;;;;5155651;27;20074;-66
2022/11/18 01:15:42;;;;;;;11.85;7.60;;;7.00;99.90;;;;;;5155660;27;20053;-66
2022/11/18 01:18:08;;;;;;;11.23;7.40;;;6.90;99.90;;;;;;5156134;27;20107;-66
2022/11/18 01:20:35;;;;;;;11.57;7.70;;;7.10;99.90;;;;;;5120255;27;20064;-66
2022/11/18 01:23:01;;;;;;;10.73;7.30;;;6.60;99.90;;;;;;5154870;27;20129;-67
2022/11/18 01:25:27;;;;;;;9.75;6.75;;;6.80;99.90;;;;;;5155411;27;20122;-66
2022/11/18 01:27:53;;;;;;;12.90;7.45;;;6.70;99.90;;;;;;5155386;27;20144;-66
2022/11/18 01:30:18;;;;;;;11.73;7.15;;;6.80;99.90;;;;;;5155384;27;20080;-67
2022/11/18 01:32:44;;;;;;;11.77;7.95;;;6.90;99.90;;;;;;5155368;27;20042;-67
2022/11/18 01:35:10;;;;;;;10.68;7.00;;;7.00;99.90;;;;;;5154935;27;20038;-66
2022/11/18 01:37:37;;;;;;;10.98;7.50;;;7.20;99.90;;;;;;5155311;27;20046;-67
2022/11/18 01:40:05;;;;;;;13.25;7.38;;;6.70;99.90;;;;;;5155130;27;20078;-66
2022/11/18 01:42:30;;;;;;;14.50;8.35;;;6.70;99.90;;;;;;5155408;27;20050;-67
2022/11/18 01:45:13;;;;;;;12.77;8.23;;;6.70;99.90;;;;;;5155184;27;20055;-66
2022/11/18 01:47:48;;;;;;;15.10;8.75;;;6.60;99.90;;;;;;5155288;27;20047;-67
2022/11/18 01:50:16;;;;;;;16.92;9.20;;;7.50;99.90;;;;;;5155691;27;20046;-66
2022/11/18 01:52:42;;;;;;;17.42;9.77;;;6.60;99.90;;;;;;5122503;27;20080;-66
2022/11/18 01:55:20;;;;;;;15.02;8.98;;;6.60;99.90;;;;;;5124112;27;20046;-66
2022/11/18 01:57:48;;;;;;;19.20;9.02;;;6.60;99.90;;;;;;5140937;27;20043;-66
2022/11/18 02:00:15;;;;;;;17.08;9.57;;;6.70;99.90;;;;;;5159165;27;20045;-67
2022/11/18 02:02:41;;;;;;;15.85;9.07;;;6.60;99.90;;;;;;5140940;27;20055;-66
2022/11/18 02:05:09;;;;;;;16.90;10.35;;;6.90;99.90;;;;;;5157765;27;20491;-67
2022/11/18 02:07:39;;;;;;;16.45;9.63;;;6.60;99.90;;;;;;5123832;27;20082;-66
2022/11/18 02:10:06;;;;;;;15.43;9.07;;;6.90;99.90;;;;;;5107035;27;20390;-67
2022/11/18 02:12:33;;;;;;;16.42;8.48;;;6.70;99.90;;;;;;5141091;27;20047;-67
2022/11/18 02:15:00;;;;;;;16.85;9.70;;;6.80;99.90;;;;;;5140704;27;20565;-67
2022/11/18 02:17:56;;;;;;;14.48;9.77;;;6.70;99.90;;;;;;5158950;27;20050;-67
2022/11/18 02:20:55;;;;;;;12.05;7.72;;;6.60;99.90;;;;;;5158923;27;20099;-66
2022/11/18 02:23:30;;;;;;;16.52;10.00;;;6.50;99.90;;;;;;5124712;27;20066;-67
2022/11/18 02:26:25;;;;;;;14.60;9.48;;;6.70;99.90;;;;;;5158796;27;20043;-66
2022/11/18 02:29:08;;;;;;;15.65;10.10;;;6.60;99.90;;;;;;5140682;27;20050;-67
2022/11/18 02:31:51;;;;;;;14.52;9.68;;;6.50;99.90;;;;;;5140385;27;20043;-67
2022/11/18 02:34:23;;;;;;;15.63;9.63;;;6.40;99.90;;;;;;5123764;27;20492;-67
2022/11/18 02:37:20;;;;;;;14.38;9.32;;;6.60;99.90;;;;;;5122992;27;20038;-67
2022/11/18 02:39:57;;;;;;;14.60;10.23;;;6.60;99.90;;;;;;5126185;27;20137;-67
2022/11/18 02:42:26;;;;;;;14.48;9.98;;;6.60;99.90;;;;;;5140005;27;20094;-67
2022/11/18 02:44:57;;;;;;;14.02;9.60;;;6.50;99.90;;;;;;5122356;27;20524;-66
2022/11/18 02:47:25;;;;;;;13.07;9.45;;;7.00;99.90;;;;;;5123367;27;20186;-66
2022/11/18 02:49:56;;;;;;;12.98;8.55;;;6.90;99.90;;;;;;5158123;27;20432;-66
2022/11/18 02:52:23;;;;;;;15.98;9.77;;;6.50;99.90;;;;;;5140106;27;20050;-67
2022/11/18 02:54:50;;;;;;;14.68;9.13;;;6.50;99.90;;;;;;5158047;27;20047;-66
2022/11/18 02:57:20;;;;;;;15.55;9.68;;;6.60;99.90;;;;;;5122860;27;20057;-67
2022/11/18 02:59:46;;;;;;;16.30;10.13;;;6.70;99.90;;;;;;5105353;27;20038;-67
2022/11/18 03:02:16;;;;;;;13.98;8.90;;;6.90;99.90;;;;;;5140501;27;20056;-67
2022/11/18 03:04:44;;;;;;;14.27;8.75;;;6.80;99.90;;;;;;5123343;27;20129;-66
2022/11/18 03:07:18;;;;;;;14.30;9.02;;;6.70;99.90;;;;;;5139770;27;20137;-66
2022/11/18 03:09:48;;;;;;;17.20;9.63;;;6.50;99.90;;;;;;5158666;27;20090;-66
2022/11/18 03:12:44;;;;;;;16.42;10.07;;;6.60;99.90;;;;;;5122458;27;20054;-66
2022/11/18 03:15:18;;;;;;;18.33;9.95;;;6.50;99.90;;;;;;5140434;27;20367;-66
2022/11/18 03:17:44;;;;;;;16.27;9.20;;;6.40;99.90;;;;;;5122412;27;20049;-67
2022/11/18 03:20:26;;;;;;;15.00;9.40;;;6.70;99.90;;;;;;5122212;27;20038;-66
2022/11/18 03:23:13;;;;;;;16.00;9.50;;;6.80;99.90;;;;;;5157267;27;20050;-66
2022/11/18 03:25:46;;;;;;;14.60;8.93;;;6.90;99.90;;;;;;5122529;27;20057;-66
2022/11/18 03:28:31;;;;;;;;;;;6.40;99.90;;;;;;5139478;27;20049;-66
2022/11/18 03:31:14;;;;;;;16.17;9.68;;;6.60;99.90;;;;;;5122025;27;19926;-66
2022/11/18 03:33:45;;;;;;;13.85;9.13;;;6.30;99.90;;;;;;5157857;27;20043;-67
2022/11/18 03:36:14;;;;;;;14.93;9.88;;;6.70;99.90;;;;;;5157448;27;20058;-67
2022/11/18 03:38:47;;;;;;;15.52;9.55;;;6.40;99.90;;;;;;5157362;27;20042;-66
2022/11/18 03:41:16;;;;;;;15.52;10.00;;;6.50;99.90;;;;;;5157244;27;20050;-66
2022/11/18 03:43:54;;;;;;;15.48;9.70;;;6.70;99.90;;;;;;5138752;27;20050;-66
2022/11/18 03:46:30;;;;;;;14.30;8.77;;;7.10;99.90;;;;;;5121707;27;20047;-66
2022/11/18 03:48:57;;;;;;;17.38;9.30;;;7.10;99.90;;;;;;5138747;27;20042;-66
2022/11/18 03:51:32;;;;;;;13.32;8.18;;;6.60;99.90;;;;;;5139203;27;20042;-66
2022/11/18 03:54:09;;;;;;;15.10;8.43;;;6.50;99.90;;;;;;5156894;27;20053;-66
2022/11/18 03:56:40;;;;;;;15.77;9.40;;;6.40;99.90;;;;;;5121748;27;20084;-66
2022/11/18 03:59:24;;;;;;;14.25;9.05;;;6.70;99.90;;;;;;5157089;27;20082;-67
2022/11/18 04:01:52;;;;;;;;;;;6.40;99.90;;;;;;5139038;27;20117;-66
2022/11/18 04:04:18;;;;;;;14.85;9.05;;;6.30;99.90;;;;;;5121607;27;19933;-66
2022/11/18 04:06:53;;;;;;;11.13;7.45;;;6.90;99.90;;;;;;5138354;27;20456;-66
2022/11/18 04:09:25;;;;;;;13.93;8.38;;;6.40;99.90;;;;;;5157268;27;20043;-67
2022/11/18 04:12:03;;;;;;;12.30;7.63;;;6.50;99.90;;;;;;5156744;27;20058;-67
2022/11/18 04:14:41;;;;;;;12.18;6.93;;;6.70;99.90;;;;;;5138082;27;20474;-66
2022/11/18 04:17:11;;;;;;;11.25;7.03;;;6.90;99.90;;;;;;5156640;27;20091;-66
2022/11/18 04:19:37;;;;;;;11.38;7.22;;;6.90;99.90;;;;;;5138463;27;20455;-66
2022/11/18 04:22:03;;;;;;;10.48;6.93;;;6.50;99.90;;;;;;5138214;27;20078;-67
2022/11/18 04:24:28;;;;;;;9.35;7.05;;;6.40;99.90;;;;;;5120457;27;20117;-67
2022/11/18 04:26:54;;;;;;;11.27;6.50;;;6.70;99.90;;;;;;5137647;27;20078;-67
2022/11/18 04:29:20;;;;;;;8.85;5.65;;;7.10;99.90;;;;;;5156377;27;20043;-67
2022/11/18 04:31:45;;;;;;;8.88;5.93;;;6.70;99.90;;;;;;5120817;27;20134;-67
2022/11/18 04:34:11;;;;;;;12.57;7.20;;;7.20;99.90;;;;;;5155901;27;20107;-67
2022/11/18 04:36:37;;;;;;;9.95;7.13;;;6.40;99.90;;;;;;5104410;27;20047;-67
2022/11/18 04:39:03;;;;;;;10.15;6.20;;;6.30;99.90;;;;;;5120886;27;20046;-67
2022/11/18 04:44:13;;;;;;;9.10;5.70;;;6.90;99.90;;;;;;5155918;27;20497;-67
2022/11/18 04:46:40;;;;;;;10.68;6.35;;;6.90;99.90;;;;;;5120616;27;20043;-67
2022/11/18 04:49:07;;;;;;;12.15;7.05;;;6.50;99.90;;;;;;5137546;27;20087;-66
2022/11/18 04:51:33;;;;;;;12.60;7.05;;;6.70;99.90;;;;;;5120656;27;20058;-67
2022/11/18 04:53:59;;;;;;;10.80;6.85;;;6.20;99.90;;;;;;5102984;27;20063;-66
2022/11/18 04:56:24;;;;;;;11.75;6.28;;;6.60;99.90;;;;;;5137612;27;20043;-66
2022/11/18 04:58:50;;;;;;;13.55;6.45;;;6.70;99.90;;;;;;5155883;27;20065;-67
2022/11/18 05:01:16;;;;;;;9.68;5.78;;;6.30;99.90;;;;;;5155744;27;20054;-67
2022/11/18 05:03:41;;;;;;;10.95;6.40;;;6.50;99.90;;;;;;5120033;27;20043;-67
2022/11/18 05:06:07;;;;;;;13.73;7.07;;;6.70;99.90;;;;;;5156009;27;20050;-67
2022/11/18 05:08:33;;;;;;;12.07;6.45;;;6.40;99.90;;;;;;5137495;27;20039;-67
2022/11/18 05:12:47;;;;;;;12.45;7.10;;;7.20;99.90;;;;;;5137462;27;20129;-67
2022/11/18 05:13:44;;;;;;;10.05;5.85;;;6.50;99.90;;;;;;5140269;27;20047;-67
2022/11/18 05:16:10;;;;;;;14.70;7.80;;;6.50;99.90;;;;;;5155460;27;20045;-67
2022/11/18 05:18:35;;;;;;;11.68;6.47;;;6.60;99.90;;;;;;5103609;27;20089;-67
2022/11/18 05:21:05;;;;;;;15.68;6.88;;;6.90;99.90;;;;;;5136959;27;20059;-67
2022/11/18 05:23:30;;;;;;;9.85;5.32;;;6.30;99.90;;;;;;5119655;27;20039;-67
2022/11/18 05:25:56;;;;;;;12.13;6.50;;;6.70;99.90;;;;;;5136255;27;20050;-67
2022/11/18 05:28:21;;;;;;;12.00;6.10;;;6.60;99.90;;;;;;5155325;27;20092;-67
2022/11/18 05:30:47;;;;;;;11.90;6.22;;;6.40;99.90;;;;;;5155279;27;20098;-67
2022/11/18 05:33:13;;;;;;;14.00;6.55;;;6.70;99.90;;;;;;5136842;27;20470;-67
2022/11/18 05:35:39;;;;;;;11.02;6.05;;;6.30;99.90;;;;;;5136876;27;20050;-67
2022/11/18 05:38:04;;;;;;;12.68;6.88;;;6.40;99.90;;;;;;5154867;27;20065;-67
2022/11/18 05:40:30;;;;;;;12.88;6.65;;;7.20;99.90;;;;;;5120319;27;20125;-67
2022/11/18 05:43:11;;;;;;;14.43;8.32;;;6.60;99.90;;;;;;5155747;27;20046;-67
2022/11/18 05:45:38;;;;;;;14.55;7.80;;;7.00;99.90;;;;;;5138638;27;20199;-67
2022/11/18 05:48:05;;;;;;;13.38;7.43;;;6.90;99.90;;;;;;5155064;27;20043;-67
2022/11/18 05:50:33;;;;;;;15.40;8.50;;;6.30;99.90;;;;;;5136722;27;20143;-67
2022/11/18 05:52:59;;;;;;;12.85;7.90;;;6.70;99.90;;;;;;5119156;27;20106;-66
2022/11/18 05:55:35;;;;;;;17.10;8.68;;;6.40;99.90;;;;;;5155053;27;20053;-67
2022/11/18 05:58:01;;;;;;;12.38;6.70;;;6.30;99.90;;;;;;5154779;27;20516;-67
2022/11/18 06:00:28;;;;;;;15.13;8.55;;;7.20;99.90;;;;;;5154960;27;20122;-67
2022/11/18 06:02:55;;;;;;;17.52;9.20;;;6.30;99.90;;;;;;5119560;27;20046;-67
2022/11/18 06:05:22;;;;;;;15.77;9.07;;;6.90;99.90;;;;;;5137246;27;20046;-67
2022/11/18 06:07:48;;;;;;;18.92;10.27;;;6.20;99.90;;;;;;5154643;27;20531;-67
2022/11/18 06:10:21;;;;;;;21.83;11.23;;;6.60;99.90;;;;;;5136678;27;20133;-67
2022/11/18 06:12:52;;;;;;;18.60;10.45;;;6.90;99.90;;;;;;5136634;27;20134;-67
2022/11/18 06:15:22;;;;;;;18.50;10.63;;;6.20;99.90;;;;;;5119323;27;20447;-67
2022/11/18 06:18:10;;;;;;;20.35;11.10;;;6.80;99.90;;;;;;5136570;27;20490;-67
2022/11/18 06:20:38;;;;;;;21.92;12.40;;;6.10;99.90;;;;;;5119367;27;20046;-67
2022/11/18 06:23:04;;;;;;;21.60;11.60;;;6.60;99.90;;;;;;5154284;27;20046;-67
2022/11/18 06:25:29;;;;;;;21.92;11.68;;;6.70;99.90;;;;;;5136506;27;20050;-66
2022/11/18 06:27:58;;;;;;;21.42;12.23;;;6.90;99.90;;;;;;5136522;27;20051;-66
2022/11/18 06:30:24;;;;;;;20.05;10.77;;;6.40;99.90;;;;;;5154934;27;20081;-66
2022/11/18 06:32:49;;;;;;;20.15;9.95;;;6.30;99.90;;;;;;5154709;27;20086;-67
2022/11/18 06:35:15;;;;;;;19.42;10.95;;;6.40;99.90;;;;;;5119453;27;20054;-67
2022/11/18 06:37:41;;;;;;;21.00;11.90;;;6.70;99.90;;;;;;5156126;27;20042;-67
2022/11/18 06:40:07;;;;;;;19.90;9.43;;;6.20;99.90;;;;;;5158915;27;20470;-66
2022/11/18 06:45:17;;;;;;;18.05;9.02;;;6.10;99.90;;;;;;5158173;27;20092;-67
2022/11/18 06:47:43;;;;;;;16.38;7.88;;;6.80;99.90;;;;;;5140170;27;20451;-67
2022/11/18 06:50:09;;;;;;;15.63;8.50;;;6.10;99.90;;;;;;5106560;27;20043;-67
2022/11/18 06:52:35;;;;;;;12.43;7.68;;;6.10;99.90;;;;;;5106151;27;20120;-66
2022/11/18 06:55:01;;;;;;;14.27;7.90;;;6.30;99.90;;;;;;5157697;27;20226;-66
2022/11/18 06:57:26;;;;;;;17.02;8.52;;;6.00;99.90;;;;;;5106099;27;20134;-67
2022/11/18 06:59:52;;;;;;;18.17;8.52;;;7.20;99.90;;;;;;5140151;27;20038;-67
2022/11/18 07:02:18;;;;;;;17.98;8.93;;;5.90;99.90;;;;;;5140134;27;20047;-67
2022/11/18 07:04:44;;;;;;;18.25;9.35;;;6.00;99.90;;;;;;5122807;27;20082;-67
2022/11/18 07:07:10;;;;;;;16.88;7.68;;;6.10;99.90;;;;;;5122701;27;20398;-66
2022/11/18 07:09:36;;;;;;;14.90;8.80;;;6.00;99.90;;;;;;5139425;27;20042;-67
2022/11/18 07:12:03;;;;;;;18.02;8.70;;;6.40;99.90;;;;;;5139346;27;20458;-67
2022/11/18 07:14:29;;;;;;;15.77;8.20;;;6.00;99.90;;;;;;5122751;27;20082;-67
2022/11/18 07:16:54;;;;;;;16.70;9.40;;;7.00;99.90;;;;;;5139602;27;20521;-67
2022/11/18 07:19:20;;;;;;;19.48;9.85;;;6.00;99.90;;;;;;5157579;27;20039;-67
2022/11/18 07:21:46;;;;;;;17.80;8.93;;;6.00;99.90;;;;;;5157887;27;20046;-67
2022/11/18 07:24:14;;;;;;;18.88;9.48;;;6.10;99.90;;;;;;5138924;27;20043;-67
2022/11/18 07:26:40;;;;;;;18.85;10.43;;;6.40;99.90;;;;;;5158033;27;20035;-67
2022/11/18 07:29:08;;;;;;;21.15;10.90;;;6.40;99.90;;;;;;5139293;27;20103;-67
2022/11/18 07:31:39;;;;;;;18.75;9.93;;;5.90;99.90;;;;;;5122114;27;20053;-66
2022/11/18 07:34:06;;;;;;;19.63;9.75;;;6.00;99.90;;;;;;5139079;27;20078;-67
2022/11/18 07:36:32;;;;;;;19.50;10.32;;;5.70;99.90;;;;;;5122000;27;20043;-67
2022/11/18 07:38:59;;;;;;;19.65;10.35;;;6.10;99.90;;;;;;5158024;27;20053;-67
2022/11/18 07:41:27;;;;;;;20.52;10.75;;;6.20;99.90;;;;;;5138737;27;20106;-67
2022/11/18 07:43:55;;;;;;;15.43;8.73;;;6.30;99.90;;;;;;5156916;27;20481;-67
2022/11/18 07:46:22;;;;;;;13.15;8.30;;;6.10;99.90;;;;;;5157391;27;20054;-67
2022/11/18 07:48:52;;;;;;;15.88;8.52;;;6.20;99.90;;;;;;5156262;27;20078;-67
2022/11/18 07:51:20;;;;;;;18.90;9.10;;;6.00;99.90;;;;;;5157265;27;20046;-67
2022/11/18 07:53:46;;;;;;;19.00;9.95;;;6.10;99.90;;;;;;5138193;27;20075;-68
2022/11/18 07:56:13;;;;;;;16.85;9.18;;;6.10;99.90;;;;;;5157326;27;20043;-67
2022/11/18 07:58:40;;;;;;;16.50;8.98;;;6.00;99.90;;;;;;5157083;27;20043;-68
2022/11/18 08:01:16;;;;;;;14.80;8.75;;;6.00;99.90;;;;;;5156962;27;20068;-68
2022/11/18 08:03:43;;;;;;;17.13;10.00;;;5.70;99.90;;;;;;5157251;27;20089;-68
2022/11/18 08:06:10;;;;;;;16.10;9.00;;;6.20;99.90;;;;;;5121582;27;20082;-67
2022/11/18 08:08:36;;;;;;;18.85;8.85;;;6.00;99.90;;;;;;5156885;27;20046;-68
2022/11/18 08:11:07;;;;;;;18.23;9.07;;;5.90;99.90;;;;;;5156818;27;20046;-68
2022/11/18 08:13:34;;;;;;;18.30;9.88;;;5.70;99.90;;;;;;5121328;27;20050;-68
2022/11/18 08:16:00;;;;;;;16.50;9.75;;;6.10;99.90;;;;;;5138367;27;20521;-68
2022/11/18 08:18:28;;;;;;;20.67;10.70;;;6.70;99.90;;;;;;5138258;27;20042;-68
2022/11/18 08:20:53;;;;;;;21.15;10.88;;;6.20;99.90;;;;;;5156570;27;20374;-67
2022/11/18 08:23:19;;;;;;;18.27;9.13;;;5.90;99.90;;;;;;5155723;27;20043;-68
2022/11/18 08:25:45;;;;;;;18.42;9.30;;;5.70;99.90;;;;;;5104034;27;20043;-68
2022/11/18 08:28:14;;;;;;;17.83;9.07;;;5.90;99.90;;;;;;5137987;27;20120;-67
2022/11/18 08:30:40;;;;;;;18.48;8.85;;;6.20;99.90;;;;;;5121213;27;20055;-68
2022/11/18 08:33:06;;;;;;;19.10;9.52;;;5.80;99.90;;;;;;5156565;27;20084;-68
2022/11/18 08:35:32;;;;;;;19.25;9.65;;;6.10;99.90;;;;;;5156500;27;20047;-68
2022/11/18 08:37:58;;;;;;;22.70;11.00;;;6.20;99.90;;;;;;5120837;27;20481;-68
2022/11/18 08:40:25;;;;;;;21.40;10.35;;;6.10;99.90;;;;;;5156762;27;20122;-68
2022/11/18 08:42:51;;;;;;;18.52;10.32;;;6.20;99.90;;;;;;5120408;27;20046;-69
2022/11/18 08:45:17;;;;;;;22.00;10.85;;;5.80;99.90;;;;;;5137492;27;20055;-68
2022/11/18 08:47:43;;;;;;;19.00;10.75;;;5.80;99.90;;;;;;5138023;27;20505;-69
2022/11/18 08:50:10;;;;;;;24.05;12.30;;;6.00;99.90;;;;;;5157066;27;20121;-67
2022/11/18 08:52:36;;;;;;;22.13;11.13;;;5.60;99.90;;;;;;5156181;27;20051;-67
2022/11/18 08:55:03;;;;;;;18.17;9.80;;;5.60;99.90;;;;;;5155575;27;20057;-68
2022/11/18 08:57:29;;;;;;;21.92;9.43;;;5.90;99.90;;;;;;5137729;27;20043;-70
2022/11/18 08:59:54;;;;;;;18.10;10.40;;;5.80;99.90;;;;;;5155826;27;20050;-68
2022/11/18 09:02:22;;;;;;;19.02;9.80;;;6.00;99.90;;;;;;5126638;27;20154;-68
2022/11/18 09:04:49;;;;;;;20.58;10.15;;;5.60;99.90;;;;;;5100222;27;20051;-70
2022/11/18 09:07:16;;;;;;;19.08;9.38;;;6.00;99.90;;;;;;5135224;27;20047;-69
2022/11/18 09:09:41;;;;;;;18.08;9.52;;;5.90;99.90;;;;;;5117128;27;20059;-68
2022/11/18 09:12:08;;;;;;;19.65;9.75;;;6.30;99.90;;;;;;5116715;27;20372;-67
2022/11/18 09:14:34;;;;;;;15.23;9.10;;;5.70;99.90;;;;;;5099852;27;20047;-67
2022/11/18 09:17:00;;;;;;;19.55;10.15;;;6.10;99.90;;;;;;5144578;27;20031;-66
2022/11/18 09:19:26;;;;;;;17.13;9.55;;;5.90;99.90;;;;;;5137006;27;20038;-70
2022/11/18 09:21:52;;;;;;;17.73;9.77;;;5.50;99.90;;;;;;5142091;27;20087;-69
2022/11/18 09:24:18;;;;;;;17.88;9.82;;;6.30;99.90;;;;;;5145001;27;20047;-68
2022/11/18 09:26:44;;;;;;;13.93;7.45;;;5.90;99.90;;;;;;5125329;27;20106;-70
2022/11/18 09:29:10;;;;;;;16.33;8.82;;;6.00;99.90;;;;;;5127005;27;20145;-70
2022/11/18 09:31:36;;;;;;;19.08;9.25;;;6.40;99.90;;;;;;5142187;27;20039;-68
2022/11/18 09:34:02;;;;;;;16.05;8.50;;;6.00;99.90;;;;;;5146101;27;20045;-68
2022/11/18 09:36:28;;;;;;;14.43;8.52;;;5.70;99.90;;;;;;5116766;27;20043;-69
2022/11/18 09:38:54;;;;;;;14.82;8.13;;;5.50;99.90;;;;;;5126257;27;20043;-68
2022/11/18 09:41:46;;;;;;;16.67;8.88;;;5.70;99.90;;;;;;5126548;27;20383;-68
2022/11/18 09:44:20;;;;;;;15.90;9.10;;;5.60;99.90;;;;;;5144018;27;20138;-68
2022/11/18 09:47:11;;;;;;;12.30;6.78;;;5.50;99.90;;;;;;5146570;27;20047;-68
2022/11/18 09:49:40;;;;;;;16.40;8.38;;;5.30;99.90;;;;;;5145038;27;20423;-68
2022/11/18 09:52:20;;;;;;;16.75;8.05;;;5.90;99.90;;;;;;5110074;27;20080;-68
2022/11/18 09:54:46;;;;;;;17.35;8.13;;;5.60;99.90;;;;;;5124599;27;20096;-68
2022/11/18 09:57:19;;;;;;;14.95;8.60;;;5.80;99.90;;;;;;5145032;27;20057;-70
2022/11/18 09:59:45;;;;;;;15.67;7.70;;;5.40;99.90;;;;;;5110158;27;20531;-68
2022/11/18 10:02:39;;;;;;;18.67;9.98;;;5.70;99.90;;;;;;5127354;27;20054;-69
2022/11/18 10:05:22;;;;;;;;;;;5.30;99.90;;;;;;5128112;27;20039;-68
2022/11/18 10:07:53;;;;;;;21.10;10.15;;;5.40;99.90;;;;;;5125247;27;19919;-68
2022/11/18 10:10:26;;;;;;;19.20;10.32;;;5.50;99.90;;;;;;5124945;27;20394;-69
2022/11/18 10:13:01;;;;;;;21.95;11.15;;;5.40;99.90;;;;;;5110133;27;20043;-69
2022/11/18 10:15:42;;;;;;;21.13;10.63;;;5.70;99.90;;;;;;5128708;27;20039;-69
2022/11/18 10:18:19;;;;;;;20.23;9.63;;;5.40;99.90;;;;;;5147574;27;20047;-69
2022/11/18 10:20:55;;;;;;;18.88;10.48;;;5.20;99.90;;;;;;5149338;27;20057;-69
2022/11/18 10:23:49;;;;;;;19.10;10.82;;;5.30;99.90;;;;;;5148473;27;20093;-69
2022/11/18 10:26:15;;;;;;;20.17;10.98;;;5.70;99.90;;;;;;5148928;27;20053;-68
2022/11/18 10:28:41;;;;;;;16.30;8.40;;;5.10;99.90;;;;;;5113624;27;20062;-68
2022/11/18 10:31:09;;;;;;;22.10;10.80;;;5.20;99.90;;;;;;5130418;27;20034;-68
2022/11/18 10:33:36;;;;;;;21.52;10.63;;;5.10;99.90;;;;;;5111817;27;20075;-68
2022/11/18 10:36:16;;;;;;;20.42;10.07;;;5.50;99.90;;;;;;5149337;27;20450;-69
2022/11/18 10:38:43;;;;;;;18.63;10.05;;;5.20;99.90;;;;;;5130558;27;20129;-68
2022/11/18 10:41:13;;;;;;;21.00;11.00;;;5.20;99.90;;;;;;5146968;27;20104;-70
2022/11/18 10:43:53;;;;;;;18.27;9.93;;;5.10;99.90;;;;;;5149309;27;20395;-69
2022/11/18 10:46:28;;;;;;;23.40;11.63;;;5.90;99.90;;;;;;5130323;27;20362;-68
2022/11/18 10:49:09;;;;;;;16.38;9.02;;;5.40;99.90;;;;;;5147521;27;20494;-68
2022/11/18 10:51:37;;;;;;;18.33;8.77;;;5.30;99.90;;;;;;5113110;27;20386;-69
2022/11/18 10:54:21;;;;;;;21.27;9.52;;;5.30;99.90;;;;;;5112882;27;20053;-69
2022/11/18 10:57:05;;;;;;;23.92;10.23;;;5.10;99.90;;;;;;5131179;27;20117;-68
2022/11/18 10:59:54;;;;;;;21.02;11.15;;;5.10;99.90;;;;;;5126080;27;20043;-68
2022/11/18 11:02:46;;;;;;;16.40;9.35;;;5.00;99.90;;;;;;5129522;27;20043;-69
2022/11/18 11:05:21;;;;;;;24.98;11.43;;;5.00;99.90;;;;;;5110179;27;20054;-69
2022/11/18 11:08:03;;;;;;;19.15;9.93;;;5.00;99.90;;;;;;5110791;27;20039;-68
2022/11/18 11:10:29;;;;;;;17.88;9.50;;;4.90;99.90;;;;;;5127120;27;20043;-68
2022/11/18 11:13:03;;;;;;;17.65;9.88;;;5.20;99.90;;;;;;5111726;27;20042;-68
2022/11/18 11:15:31;;;;;;;16.15;8.52;;;5.50;99.90;;;;;;5147778;27;20034;-68
2022/11/18 11:20:46;;;;;;;16.13;8.38;;;5.30;99.90;;;;;;5126749;27;20047;-68
2022/11/18 11:23:14;;;;;;;19.88;9.40;;;4.80;99.90;;;;;;5129666;27;20100;-70
2022/11/18 11:26:01;;;;;;;20.05;10.20;;;5.00;99.90;;;;;;5145069;27;20080;-68
2022/11/18 11:28:59;;;;;;;19.90;10.68;;;4.90;99.90;;;;;;5127751;27;20476;-70
2022/11/18 11:31:50;;;;;;;19.20;10.23;;;4.90;99.90;;;;;;5127337;27;20039;-69
2022/11/18 11:34:43;;;;;;;19.83;10.75;;;4.80;99.90;;;;;;5146929;27;20107;-69
2022/11/18 11:37:31;;;;;;;20.20;11.07;;;5.20;99.90;;;;;;5148013;27;20047;-69
2022/11/18 11:40:04;;;;;;;19.13;10.05;;;5.00;99.90;;;;;;5147057;27;20092;-70
2022/11/18 11:43:02;;;;;;;20.77;11.15;;;5.00;99.90;;;;;;5129020;27;20117;-70
2022/11/18 11:45:53;;;;;;;19.85;9.48;;;5.70;99.90;;;;;;5130317;27;20080;-70
2022/11/18 11:48:45;;;;;;;19.10;10.13;;;5.00;99.90;;;;;;5147210;27;20051;-69
2022/11/18 11:51:32;;;;;;;15.68;9.02;;;5.00;99.90;;;;;;5145885;27;20054;-69
2022/11/18 11:54:06;;;;;;;18.92;9.93;;;5.00;99.90;;;;;;5122570;27;20035;-70
2022/11/18 11:56:58;;;;;;;19.17;9.93;;;4.90;99.90;;;;;;5143418;27;20436;-70
2022/11/18 11:59:34;;;;;;;18.13;10.18;;;4.90;99.90;;;;;;5146668;27;20072;-70
2022/11/18 12:02:31;;;;;;;18.80;9.63;;;4.90;99.90;;;;;;5146473;27;20043;-70
2022/11/18 12:05:02;;;;;;;17.00;9.23;;;4.50;99.90;;;;;;5127119;27;20119;-70
2022/11/18 12:07:32;;;;;;;18.30;9.13;;;4.80;99.90;;;;;;5128202;27;20046;-70
2022/11/18 12:10:24;;;;;;;17.92;10.05;;;4.80;99.90;;;;;;5146074;27;20035;-70
2022/11/18 12:13:07;;;;;;;15.65;8.63;;;4.70;99.90;;;;;;5128425;27;20379;-70
2022/11/18 12:15:42;;;;;;;16.95;8.77;;;4.70;99.90;;;;;;5125573;27;20123;-69
2022/11/18 12:18:44;;;;;;;17.30;9.05;;;4.80;99.90;;;;;;5128344;27;20385;-70
2022/11/18 12:21:45;;;;;;;19.00;8.80;;;4.70;99.90;;;;;;5128514;27;20042;-70
2022/11/18 12:24:41;;;;;;;15.90;8.27;;;4.80;99.90;;;;;;5120690;27;20557;-70
2022/11/18 12:27:12;;;;;;;15.75;8.40;;;4.70;99.90;;;;;;5146880;27;20046;-70
2022/11/18 12:29:47;;;;;;;15.70;8.98;;;4.90;99.90;;;;;;5144885;27;20484;-70
2022/11/18 12:32:35;;;;;;;13.18;8.43;;;5.50;99.90;;;;;;5145935;27;20095;-70
2022/11/18 12:35:22;;;;;;;17.27;8.85;;;5.10;99.90;;;;;;5126636;27;20040;-70
2022/11/18 12:37:50;;;;;;;17.73;9.75;;;4.90;99.90;;;;;;5145782;27;20478;-70
2022/11/18 12:40:41;;;;;;;17.35;8.95;;;4.80;99.90;;;;;;5126777;27;20491;-70
2022/11/18 12:46:28;;;;;;;21.92;10.68;;;4.60;99.90;;;;;;5125483;27;20052;-70
2022/11/18 12:48:54;;;;;;;18.13;10.57;;;4.60;99.90;;;;;;5110405;27;20462;-70
2022/11/18 12:51:25;;;;;;;26.95;10.63;;;4.90;99.90;;;;;;5145998;27;20111;-69
2022/11/18 12:53:52;;;;;;;19.80;10.38;;;4.70;99.90;;;;;;5142861;27;20126;-69
2022/11/18 12:56:22;;;;;;;19.70;10.15;;;4.70;99.90;;;;;;5125333;27;20038;-70
2022/11/18 12:58:52;;;;;;;22.45;11.90;;;4.70;99.90;;;;;;5143521;27;20054;-70
2022/11/18 13:01:24;;;;;;;20.55;10.90;;;5.10;99.90;;;;;;5143768;27;20054;-70
2022/11/18 13:03:51;;;;;;;21.52;11.50;;;5.10;99.90;;;;;;5124702;27;20043;-70
2022/11/18 13:06:29;;;;;;;21.67;10.88;;;4.50;99.90;;;;;;5143822;27;20371;-70
2022/11/18 13:08:59;;;;;;;19.67;10.38;;;4.80;99.90;;;;;;5144109;27;20043;-69
2022/11/18 13:11:43;;;;;;;18.67;9.23;;;4.50;99.90;;;;;;5124525;27;20046;-70
2022/11/18 13:20:30;;;;;;;22.83;11.00;;;4.40;99.90;;;;;;5125607;27;20115;-71
2022/11/18 13:25:44;;;;;;;19.15;10.50;;;4.40;99.90;;;;;;5126227;27;20454;-70
2022/11/18 13:28:32;;;;;;;21.55;10.68;;;4.30;99.90;;;;;;5126051;27;20090;-69
2022/11/18 13:31:21;;;;;;;22.13;10.57;;;4.40;99.90;;;;;;5125961;27;20039;-70
2022/11/18 13:33:46;;;;;;;18.08;10.07;;;4.50;99.90;;;;;;5102412;27;20085;-70